Time,TemperatureF,DewpointF,PressureIn,WindDirection,WindDirectionDegrees,WindSpeedMPH,WindSpeedGustMPH,Humidity,HourlyPrecipIn,Conditions,Clouds,dailyrainin,SoftwareType,DateUTC
2015-02-28 00:04:00,45.5,38.7,29.56,NNE,22,1.6,1.6,77,0.00,,---,0.00,VWS V14.00,2015-02-28 08:04:00,
2015-02-28 00:09:00,45.5,38.7,29.56,ENE,68,0.0,0.9,77,0.00,,---,0.00,VWS V14.00,2015-02-28 08:09:00,
2015-02-28 00:15:00,45.3,38.5,29.56,ENE,68,2.0,2.7,77,0.00,,---,0.00,VWS V14.00,2015-02-28 08:15:00,
2015-02-28 00:20:00,45.1,38.7,29.56,ENE,68,0.0,2.2,78,0.00,,---,0.00,VWS V14.00,2015-02-28 08:20:00,
2015-02-28 00:25:00,45.1,38.7,29.56,NE,45,0.0,0.0,78,0.00,,---,0.00,VWS V14.00,2015-02-28 08:25:00,
2015-02-28 00:30:00,45.0,38.5,29.56,ENE,68,0.0,0.0,78,0.00,,---,0.00,VWS V14.00,2015-02-28 08:30:00,
2015-02-28 00:36:00,44.8,38.3,29.56,NE,45,0.0,0.0,78,0.00,,---,0.00,VWS V14.00,2015-02-28 08:36:00,
2015-02-28 00:41:00,44.8,38.7,29.56,SE,135,0.0,0.0,79,0.00,,---,0.00,VWS V14.00,2015-02-28 08:41:00,
2015-02-28 00:46:00,44.6,38.5,29.56,NE,45,0.0,0.0,79,0.00,,---,0.00,VWS V14.00,2015-02-28 08:46:00,
2015-02-28 00:51:00,44.2,37.8,29.56,NE,45,0.0,0.0,78,0.00,,---,0.00,VWS V14.00,2015-02-28 08:51:00,
2015-02-28 00:57:00,44.1,38.0,29.56,South,180,0.0,0.0,79,0.00,,---,0.00,VWS V14.00,2015-02-28 08:57:00,
2015-02-28 01:03:00,43.7,37.3,29.56,South,180,0.0,0.0,78,0.00,,---,0.00,VWS V14.00,2015-02-28 09:03:00,
2015-02-28 01:08:00,43.5,37.5,29.56,WNW,292,0.0,0.0,79,0.00,,---,0.00,VWS V14.00,2015-02-28 09:08:00,
2015-02-28 01:14:00,43.5,37.8,29.56,SE,135,2.7,2.7,80,0.00,,---,0.00,VWS V14.00,2015-02-28 09:14:00,
2015-02-28 01:19:00,43.5,37.8,29.56,NW,315,3.1,3.6,80,0.00,,---,0.00,VWS V14.00,2015-02-28 09:19:00,
2015-02-28 01:25:00,43.5,38.1,29.56,East,90,0.0,0.0,81,0.00,,---,0.00,VWS V14.00,2015-02-28 09:25:00,
2015-02-28 01:30:00,43.5,38.1,29.56,SE,135,0.0,0.0,81,0.00,,---,0.00,VWS V14.00,2015-02-28 09:30:00,
2015-02-28 01:35:00,43.3,37.9,29.56,WNW,292,0.0,0.0,81,0.00,,---,0.00,VWS V14.00,2015-02-28 09:35:00,
2015-02-28 01:40:00,43.3,37.9,29.56,East,90,2.5,2.5,81,0.00,,---,0.00,VWS V14.00,2015-02-28 09:40:00,
2015-02-28 01:46:00,43.2,38.0,29.56,ENE,68,1.6,2.0,82,0.00,,---,0.00,VWS V14.00,2015-02-28 09:46:00,
2015-02-28 01:52:00,43.3,38.2,29.56,ENE,68,0.0,0.0,82,0.00,,---,0.00,VWS V14.00,2015-02-28 09:52:00,
2015-02-28 01:57:00,43.3,38.2,29.56,East,90,0.0,0.0,82,0.00,,---,0.00,VWS V14.00,2015-02-28 09:57:00,
2015-02-28 02:04:00,43.3,38.2,29.56,ENE,68,0.0,0.0,82,0.00,,---,0.00,VWS V14.00,2015-02-28 10:04:00,
2015-02-28 02:09:00,43.3,38.2,29.59,SE,135,0.0,0.0,82,0.00,,---,0.00,VWS V14.00,2015-02-28 10:09:00,
2015-02-28 02:15:00,43.3,38.2,29.59,ESE,112,0.0,0.0,82,0.00,,---,0.00,VWS V14.00,2015-02-28 10:15:00,
2015-02-28 02:20:00,43.5,38.4,29.59,East,90,0.0,0.0,82,0.00,,---,0.00,VWS V14.00,2015-02-28 10:20:00,
2015-02-28 02:25:00,43.5,38.7,29.59,SE,135,0.0,0.0,83,0.00,,---,0.00,VWS V14.00,2015-02-28 10:25:00,
2015-02-28 02:31:00,43.5,38.7,29.59,NNE,22,0.0,0.0,83,0.00,,---,0.00,VWS V14.00,2015-02-28 10:31:00,
2015-02-28 02:37:00,43.5,38.7,29.59,East,90,3.6,3.6,83,0.00,,---,0.00,VWS V14.00,2015-02-28 10:37:00,
2015-02-28 02:42:00,43.7,39.2,29.59,East,90,0.0,2.0,84,0.00,,---,0.00,VWS V14.00,2015-02-28 10:42:00,
2015-02-28 02:48:00,43.9,39.4,29.59,ENE,68,0.0,0.0,84,0.00,,---,0.00,VWS V14.00,2015-02-28 10:48:00,
2015-02-28 02:53:00,44.2,39.7,29.59,SE,135,1.6,2.7,84,0.00,,---,0.00,VWS V14.00,2015-02-28 10:53:00,
2015-02-28 02:59:00,44.4,40.2,29.59,ENE,68,0.0,0.0,85,0.00,,---,0.00,VWS V14.00,2015-02-28 10:59:00,
2015-02-28 03:04:00,44.4,40.2,29.59,East,90,2.0,2.7,85,0.00,,---,0.00,VWS V14.00,2015-02-28 11:04:00,
2015-02-28 03:10:00,44.6,40.7,29.59,ENE,68,2.5,2.9,86,0.00,,---,0.00,VWS V14.00,2015-02-28 11:10:00,
2015-02-28 03:15:00,44.6,41.0,29.59,NE,45,2.7,3.4,87,0.00,,---,0.00,VWS V14.00,2015-02-28 11:15:00,
2015-02-28 03:20:00,44.8,41.2,29.59,ENE,68,2.9,2.9,87,0.00,,---,0.00,VWS V14.00,2015-02-28 11:20:00,
2015-02-28 03:25:00,45.0,41.3,29.59,East,90,3.6,3.8,87,0.00,,---,0.00,VWS V14.00,2015-02-28 11:25:00,
2015-02-28 03:31:00,45.1,41.5,29.59,ENE,68,1.6,2.7,87,0.00,,---,0.00,VWS V14.00,2015-02-28 11:31:00,
2015-02-28 03:36:00,45.3,41.7,29.59,East,90,3.8,3.8,87,0.00,,---,0.00,VWS V14.00,2015-02-28 11:36:00,
2015-02-28 03:41:00,45.5,41.9,29.56,East,90,2.0,3.6,87,0.00,,---,0.00,VWS V14.00,2015-02-28 11:41:00,
2015-02-28 03:46:00,45.5,41.9,29.56,NE,45,0.0,2.0,87,0.00,,---,0.00,VWS V14.00,2015-02-28 11:46:00,
2015-02-28 03:52:00,45.5,41.6,29.56,ENE,68,1.6,2.5,86,0.00,,---,0.00,VWS V14.00,2015-02-28 11:52:00,
2015-02-28 03:57:00,45.5,41.6,29.59,East,90,0.0,0.0,86,0.00,,---,0.00,VWS V14.00,2015-02-28 11:57:00,
2015-02-28 04:02:00,45.7,41.7,29.59,East,90,0.0,0.9,86,0.00,,---,0.00,VWS V14.00,2015-02-28 12:02:00,
2015-02-28 04:07:00,45.7,41.4,29.59,NE,45,0.0,0.0,85,0.00,,---,0.00,VWS V14.00,2015-02-28 12:07:00,
2015-02-28 04:13:00,45.5,41.3,29.59,ENE,68,2.5,2.5,85,0.00,,---,0.00,VWS V14.00,2015-02-28 12:13:00,
2015-02-28 04:18:00,45.5,41.3,29.59,ENE,68,1.3,2.7,85,0.00,,---,0.00,VWS V14.00,2015-02-28 12:18:00,
2015-02-28 04:23:00,45.5,41.3,29.59,NE,45,0.0,2.2,85,0.00,,---,0.00,VWS V14.00,2015-02-28 12:23:00,
2015-02-28 04:28:00,45.5,41.3,29.59,East,90,0.0,0.0,85,0.00,,---,0.00,VWS V14.00,2015-02-28 12:28:00,
2015-02-28 04:34:00,45.5,41.0,29.59,ENE,68,0.0,0.0,84,0.00,,---,0.00,VWS V14.00,2015-02-28 12:34:00,
2015-02-28 04:40:00,45.3,40.8,29.59,NE,45,0.0,0.0,84,0.00,,---,0.00,VWS V14.00,2015-02-28 12:40:00,
2015-02-28 04:45:00,45.1,40.6,29.59,NE,45,0.0,0.0,84,0.00,,---,0.00,VWS V14.00,2015-02-28 12:45:00,
2015-02-28 04:50:00,45.1,40.6,29.59,NE,45,0.0,0.0,84,0.00,,---,0.00,VWS V14.00,2015-02-28 12:50:00,
2015-02-28 04:55:00,45.0,40.4,29.59,NE,45,0.0,0.0,84,0.00,,---,0.00,VWS V14.00,2015-02-28 12:55:00,
2015-02-28 05:00:00,45.0,40.4,29.59,NE,45,0.0,2.2,84,0.00,,---,0.00,VWS V14.00,2015-02-28 13:00:00,
2015-02-28 05:05:00,45.0,40.4,29.59,NE,45,0.0,0.0,84,0.00,,---,0.00,VWS V14.00,2015-02-28 13:05:00,
2015-02-28 05:10:00,45.1,40.9,29.59,NE,45,0.0,0.0,85,0.00,,---,0.00,VWS V14.00,2015-02-28 13:10:00,
2015-02-28 05:16:00,45.1,40.6,29.59,NE,45,1.6,2.5,84,0.00,,---,0.00,VWS V14.00,2015-02-28 13:16:00,
2015-02-28 05:21:00,45.1,40.9,29.59,NE,45,1.6,1.6,85,0.00,,---,0.00,VWS V14.00,2015-02-28 13:21:00,
2015-02-28 05:27:00,45.1,40.9,29.62,NE,45,1.3,2.2,85,0.00,,---,0.00,VWS V14.00,2015-02-28 13:27:00,
2015-02-28 05:33:00,45.1,40.9,29.62,NE,45,1.1,1.6,85,0.00,,---,0.00,VWS V14.00,2015-02-28 13:33:00,
2015-02-28 05:39:00,45.1,40.9,29.59,NE,45,2.2,2.7,85,0.00,,---,0.00,VWS V14.00,2015-02-28 13:39:00,
2015-02-28 05:44:00,45.1,40.9,29.59,NE,45,0.0,0.0,85,0.00,,---,0.00,VWS V14.00,2015-02-28 13:44:00,
2015-02-28 05:49:00,45.1,40.9,29.59,NE,45,1.6,2.0,85,0.00,,---,0.00,VWS V14.00,2015-02-28 13:49:00,
2015-02-28 05:54:00,45.1,40.9,29.62,NNE,22,0.0,0.0,85,0.00,,---,0.00,VWS V14.00,2015-02-28 13:54:00,
2015-02-28 05:59:00,45.1,40.9,29.62,NNE,22,0.0,0.0,85,0.00,,---,0.00,VWS V14.00,2015-02-28 13:59:00,
2015-02-28 06:05:00,45.1,40.9,29.62,NNE,22,0.0,0.0,85,0.00,,---,0.00,VWS V14.00,2015-02-28 14:05:00,
2015-02-28 06:10:00,45.1,40.9,29.62,NNE,22,0.0,0.0,85,0.00,,---,0.00,VWS V14.00,2015-02-28 14:10:00,
2015-02-28 06:15:00,45.1,40.9,29.62,NNE,22,0.0,0.0,85,0.00,,---,0.00,VWS V14.00,2015-02-28 14:15:00,
2015-02-28 06:20:00,45.0,40.7,29.62,NE,45,0.0,0.0,85,0.00,,---,0.00,VWS V14.00,2015-02-28 14:20:00,
2015-02-28 06:26:00,45.0,40.7,29.62,NE,45,0.0,0.0,85,0.00,,---,0.00,VWS V14.00,2015-02-28 14:26:00,
2015-02-28 06:32:00,44.8,40.5,29.62,NE,45,0.0,0.0,85,0.00,,---,0.00,VWS V14.00,2015-02-28 14:32:00,
2015-02-28 06:37:00,44.6,40.1,29.62,WNW,292,0.0,0.0,84,0.00,,---,0.00,VWS V14.00,2015-02-28 14:37:00,
2015-02-28 06:43:00,44.4,40.2,29.62,WNW,292,0.0,0.0,85,0.00,,---,0.00,VWS V14.00,2015-02-28 14:43:00,
2015-02-28 06:48:00,44.1,39.8,29.62,North,0,0.0,0.0,85,0.00,,---,0.00,VWS V14.00,2015-02-28 14:48:00,
2015-02-28 06:54:00,43.7,39.2,29.62,North,0,0.0,0.0,84,0.00,,---,0.00,VWS V14.00,2015-02-28 14:54:00,
2015-02-28 06:59:00,43.3,38.8,29.62,North,0,0.0,0.0,84,0.00,,---,0.00,VWS V14.00,2015-02-28 14:59:00,
2015-02-28 07:04:00,43.2,38.7,29.62,NNE,22,0.0,0.0,84,0.00,,---,0.00,VWS V14.00,2015-02-28 15:04:00,
2015-02-28 07:10:00,43.0,38.5,29.62,NNE,22,0.0,0.0,84,0.00,,---,0.00,VWS V14.00,2015-02-28 15:10:00,
2015-02-28 07:15:00,43.0,38.5,29.62,NNE,22,0.0,0.0,84,0.00,,---,0.00,VWS V14.00,2015-02-28 15:15:00,
2015-02-28 07:20:00,43.0,38.5,29.62,NNE,22,0.0,0.0,84,0.00,,---,0.00,VWS V14.00,2015-02-28 15:20:00,
2015-02-28 07:25:00,43.0,38.5,29.62,NNE,22,0.0,0.0,84,0.00,,---,0.00,VWS V14.00,2015-02-28 15:25:00,
2015-02-28 07:30:00,43.0,38.5,29.62,NNE,22,0.0,0.0,84,0.00,,---,0.00,VWS V14.00,2015-02-28 15:30:00,
2015-02-28 07:36:00,43.2,39.0,29.62,NNE,22,0.0,0.0,85,0.00,,---,0.00,VWS V14.00,2015-02-28 15:36:00,
2015-02-28 07:41:00,43.3,39.4,29.65,NNE,22,0.0,0.0,86,0.00,,---,0.00,VWS V14.00,2015-02-28 15:41:00,
2015-02-28 07:46:00,43.5,39.6,29.65,NNE,22,0.0,0.0,86,0.00,,---,0.00,VWS V14.00,2015-02-28 15:46:00,
2015-02-28 07:51:00,43.5,39.6,29.65,NNE,22,0.0,0.0,86,0.00,,---,0.00,VWS V14.00,2015-02-28 15:51:00,
2015-02-28 07:58:00,43.5,39.6,29.65,North,0,2.5,2.5,86,0.00,,---,0.00,VWS V14.00,2015-02-28 15:58:00,
2015-02-28 08:03:00,43.7,39.8,29.65,NNE,22,0.0,0.0,86,0.00,,---,0.00,VWS V14.00,2015-02-28 16:03:00,
2015-02-28 08:08:00,43.9,40.0,29.65,NNE,22,0.0,0.0,86,0.00,,---,0.00,VWS V14.00,2015-02-28 16:08:00,
2015-02-28 08:14:00,44.6,41.0,29.65,NNE,22,0.0,0.0,87,0.00,,---,0.00,VWS V14.00,2015-02-28 16:14:00,
2015-02-28 08:19:00,45.0,41.3,29.65,NNE,22,0.0,0.0,87,0.00,,---,0.00,VWS V14.00,2015-02-28 16:19:00,
2015-02-28 08:25:00,46.0,42.7,29.65,NNE,22,0.0,0.0,88,0.00,,---,0.00,VWS V14.00,2015-02-28 16:25:00,
2015-02-28 08:30:00,46.9,43.6,29.65,NNE,22,0.0,0.0,88,0.00,,---,0.00,VWS V14.00,2015-02-28 16:30:00,
2015-02-28 08:35:00,48.7,45.9,29.65,NNE,22,0.0,0.0,90,0.00,,---,0.00,VWS V14.00,2015-02-28 16:35:00,
2015-02-28 08:40:00,49.6,47.1,29.65,NE,45,0.0,0.0,91,0.00,,---,0.00,VWS V14.00,2015-02-28 16:40:00,
2015-02-28 08:45:00,51.6,49.4,29.65,East,90,0.0,0.0,92,0.00,,---,0.00,VWS V14.00,2015-02-28 16:45:00,
2015-02-28 08:50:00,55.0,52.5,29.65,East,90,0.0,0.0,91,0.00,,---,0.00,VWS V14.00,2015-02-28 16:50:00,
2015-02-28 08:56:00,57.2,53.7,29.65,NE,45,0.0,0.0,88,0.00,,---,0.00,VWS V14.00,2015-02-28 16:56:00,
2015-02-28 09:01:00,58.6,53.5,29.65,SW,225,0.0,0.0,83,0.00,,---,0.00,VWS V14.00,2015-02-28 17:01:00,
2015-02-28 09:07:00,61.0,51.5,29.65,NW,315,0.0,1.3,71,0.00,,---,0.00,VWS V14.00,2015-02-28 17:07:00,
2015-02-28 09:13:00,62.4,50.5,29.65,SW,225,0.0,0.0,65,0.00,,---,0.00,VWS V14.00,2015-02-28 17:13:00,
2015-02-28 09:18:00,62.2,44.9,29.65,South,180,4.3,4.3,53,0.00,,---,0.00,VWS V14.00,2015-02-28 17:18:00,
2015-02-28 09:23:00,62.2,46.4,29.65,SSW,202,3.6,3.8,56,0.00,,---,0.00,VWS V14.00,2015-02-28 17:23:00,
2015-02-28 09:28:00,63.0,44.6,29.65,SW,225,2.0,2.5,51,0.00,,---,0.00,VWS V14.00,2015-02-28 17:28:00,
2015-02-28 09:34:00,63.7,44.2,29.65,SW,225,2.9,4.3,49,0.00,,---,0.00,VWS V14.00,2015-02-28 17:34:00,
2015-02-28 09:39:00,64.4,44.3,29.65,South,180,0.0,1.6,48,0.00,,---,0.00,VWS V14.00,2015-02-28 17:39:00,
2015-02-28 09:45:00,65.3,45.1,29.65,SE,135,2.7,2.7,48,0.00,,---,0.00,VWS V14.00,2015-02-28 17:45:00,
2015-02-28 09:51:00,64.8,43.0,29.65,West,270,2.2,4.0,45,0.00,,---,0.00,VWS V14.00,2015-02-28 17:51:00,
2015-02-28 09:57:00,65.5,43.6,29.65,SE,135,3.4,3.6,45,0.00,,---,0.00,VWS V14.00,2015-02-28 17:57:00,
2015-02-28 10:02:00,63.9,42.1,29.65,South,180,6.3,6.3,45,0.00,,---,0.00,VWS V14.00,2015-02-28 18:02:00,
2015-02-28 10:07:00,64.8,43.0,29.65,East,90,1.6,3.8,45,0.00,,---,0.00,VWS V14.00,2015-02-28 18:07:00,
2015-02-28 10:14:00,65.5,43.0,29.65,South,180,5.4,5.4,44,0.00,,---,0.00,VWS V14.00,2015-02-28 18:14:00,
2015-02-28 10:20:00,63.9,41.5,29.65,SW,225,0.0,2.2,44,0.00,,---,0.00,VWS V14.00,2015-02-28 18:20:00,
2015-02-28 10:26:00,62.2,40.7,29.65,WSW,248,0.9,4.3,45,0.00,,---,0.00,VWS V14.00,2015-02-28 18:26:00,
2015-02-28 10:31:00,60.3,39.4,29.65,SSW,202,0.0,3.8,46,0.00,,---,0.00,VWS V14.00,2015-02-28 18:31:00,
2015-02-28 10:36:00,59.4,39.2,29.65,SW,225,3.1,3.4,47,0.00,,---,0.00,VWS V14.00,2015-02-28 18:36:00,
2015-02-28 10:41:00,59.5,40.4,29.65,WSW,248,2.5,5.6,49,0.00,,---,0.00,VWS V14.00,2015-02-28 18:41:00,
2015-02-28 10:47:00,61.2,41.9,29.65,South,180,4.0,4.7,49,0.00,,---,0.00,VWS V14.00,2015-02-28 18:47:00,
2015-02-28 10:53:00,61.3,41.5,29.65,South,180,1.6,5.4,48,0.00,,---,0.00,VWS V14.00,2015-02-28 18:53:00,
2015-02-28 10:59:00,60.4,41.2,29.65,South,180,3.4,4.3,49,0.00,,---,0.00,VWS V14.00,2015-02-28 18:59:00,
2015-02-28 11:05:00,62.2,42.9,29.65,South,180,4.3,5.6,49,0.00,,---,0.00,VWS V14.00,2015-02-28 19:05:00,
2015-02-28 11:11:00,63.0,42.4,29.65,South,180,2.9,5.6,47,0.00,,---,0.00,VWS V14.00,2015-02-28 19:11:00,
2015-02-28 11:16:00,63.9,42.7,29.65,South,180,3.4,6.0,46,0.00,,---,0.00,VWS V14.00,2015-02-28 19:16:00,
2015-02-28 11:21:00,63.9,41.5,29.65,SE,135,3.4,5.8,44,0.00,,---,0.00,VWS V14.00,2015-02-28 19:21:00,
2015-02-28 11:26:00,64.2,41.9,29.65,SE,135,3.6,7.4,44,0.00,,---,0.00,VWS V14.00,2015-02-28 19:26:00,
2015-02-28 11:32:00,64.4,41.4,29.65,SE,135,5.8,5.8,43,0.00,,---,0.00,VWS V14.00,2015-02-28 19:32:00,
2015-02-28 11:38:00,64.6,40.4,29.65,South,180,4.3,8.5,41,0.00,,---,0.00,VWS V14.00,2015-02-28 19:38:00,
2015-02-28 11:43:00,65.1,40.2,29.65,NW,315,2.7,4.9,40,0.00,,---,0.00,VWS V14.00,2015-02-28 19:43:00,
2015-02-28 11:48:00,66.0,41.0,29.65,South,180,3.4,3.6,40,0.00,,---,0.00,VWS V14.00,2015-02-28 19:48:00,
2015-02-28 11:53:00,67.1,40.7,29.65,SSW,202,5.4,5.4,38,0.00,,---,0.00,VWS V14.00,2015-02-28 19:53:00,
2015-02-28 11:58:00,64.9,38.1,29.65,SSW,202,5.8,6.0,37,0.00,,---,0.00,VWS V14.00,2015-02-28 19:58:00,
2015-02-28 12:03:00,62.4,37.2,29.65,SW,225,0.0,2.9,39,0.00,,---,0.00,VWS V14.00,2015-02-28 20:03:00,
2015-02-28 12:09:00,62.2,37.6,29.65,SW,225,2.5,2.7,40,0.00,,---,0.00,VWS V14.00,2015-02-28 20:09:00,
2015-02-28 12:14:00,64.2,38.8,29.65,ESE,112,4.0,6.5,39,0.00,,---,0.00,VWS V14.00,2015-02-28 20:14:00,
2015-02-28 12:20:00,65.5,39.9,29.65,SW,225,3.8,3.8,39,0.00,,---,0.00,VWS V14.00,2015-02-28 20:20:00,
2015-02-28 12:25:00,65.8,39.5,29.65,WSW,248,1.3,5.6,38,0.00,,---,0.00,VWS V14.00,2015-02-28 20:25:00,
2015-02-28 12:30:00,66.6,40.2,29.65,South,180,6.0,6.0,38,0.00,,---,0.00,VWS V14.00,2015-02-28 20:30:00,
2015-02-28 12:36:00,66.0,39.0,29.65,SW,225,6.0,8.1,37,0.00,,---,0.00,VWS V14.00,2015-02-28 20:36:00,
2015-02-28 12:42:00,65.8,38.9,29.62,West,270,1.6,4.0,37,0.00,,---,0.00,VWS V14.00,2015-02-28 20:42:00,
2015-02-28 12:48:00,66.0,39.0,29.62,WSW,248,5.8,6.3,37,0.00,,---,0.00,VWS V14.00,2015-02-28 20:48:00,
2015-02-28 12:55:00,66.4,38.6,29.62,South,180,3.1,5.4,36,0.00,,---,0.00,VWS V14.00,2015-02-28 20:55:00,
2015-02-28 13:00:00,66.4,38.6,29.62,South,180,4.9,8.7,36,0.00,,---,0.00,VWS V14.00,2015-02-28 21:00:00,
2015-02-28 13:05:00,66.9,38.4,29.62,West,270,1.3,2.0,35,0.00,,---,0.00,VWS V14.00,2015-02-28 21:05:00,
2015-02-28 13:12:00,66.7,38.2,29.62,SSE,158,5.4,7.4,35,0.00,,---,0.00,VWS V14.00,2015-02-28 21:12:00,
2015-02-28 13:17:00,67.3,38.7,29.62,WSW,248,3.4,5.8,35,0.00,,---,0.00,VWS V14.00,2015-02-28 21:17:00,
2015-02-28 15:58:00,64.0,36.6,29.62,West,270,1.6,2.7,36,0.00,,---,0.00,VWS V14.00,2015-02-28 23:58:00,
2015-02-28 16:04:00,64.8,36.5,29.62,East,90,2.5,4.0,35,0.00,,---,0.00,VWS V14.00,2015-03-01 00:04:00,
2015-02-28 16:10:00,65.7,37.3,29.62,East,90,4.3,4.3,35,0.00,,---,0.00,VWS V14.00,2015-03-01 00:10:00,
2015-02-28 16:15:00,64.4,35.5,29.62,ENE,68,3.8,4.0,34,0.00,,---,0.00,VWS V14.00,2015-03-01 00:15:00,
2015-02-28 16:21:00,64.2,36.0,29.62,SSE,158,4.3,4.3,35,0.00,,---,0.00,VWS V14.00,2015-03-01 00:21:00,
2015-02-28 16:26:00,64.6,36.3,29.62,SE,135,4.9,4.9,35,0.00,,---,0.00,VWS V14.00,2015-03-01 00:26:00,
2015-02-28 16:32:00,64.0,36.6,29.62,SE,135,4.9,4.9,36,0.00,,---,0.00,VWS V14.00,2015-03-01 00:32:00,
2015-02-28 16:38:00,63.1,35.8,29.62,SSE,158,4.7,4.7,36,0.00,,---,0.00,VWS V14.00,2015-03-01 00:38:00,
2015-02-28 16:43:00,62.8,35.5,29.62,SE,135,4.3,6.3,36,0.00,,---,0.00,VWS V14.00,2015-03-01 00:43:00,
2015-02-28 16:50:00,62.8,36.2,29.62,SSE,158,5.8,5.8,37,0.00,,---,0.00,VWS V14.00,2015-03-01 00:50:00,
2015-02-28 16:55:00,62.4,36.5,29.62,SE,135,5.6,5.8,38,0.00,,---,0.00,VWS V14.00,2015-03-01 00:55:00,
2015-02-28 17:00:00,62.2,37.0,29.62,SSE,158,6.5,6.5,39,0.00,,---,0.00,VWS V14.00,2015-03-01 01:00:00,
2015-02-28 17:06:00,61.9,37.3,29.62,SSE,158,6.5,6.5,40,0.00,,---,0.00,VWS V14.00,2015-03-01 01:06:00,
2015-02-28 17:12:00,61.7,37.8,29.62,South,180,4.7,5.8,41,0.00,,---,0.00,VWS V14.00,2015-03-01 01:12:00,
2015-02-28 17:17:00,61.2,37.3,29.62,SSE,158,4.9,4.9,41,0.00,,---,0.00,VWS V14.00,2015-03-01 01:17:00,
2015-02-28 17:22:00,61.0,37.1,29.62,SE,135,4.3,4.7,41,0.00,,---,0.00,VWS V14.00,2015-03-01 01:22:00,
2015-02-28 17:27:00,60.4,37.9,29.65,ESE,112,4.0,5.4,43,0.00,,---,0.00,VWS V14.00,2015-03-01 01:27:00,
2015-02-28 17:33:00,60.1,38.1,29.65,SE,135,4.3,5.4,44,0.00,,---,0.00,VWS V14.00,2015-03-01 01:33:00,
2015-02-28 17:38:00,59.5,38.2,29.65,South,180,3.4,4.3,45,0.00,,---,0.00,VWS V14.00,2015-03-01 01:38:00,
2015-02-28 17:44:00,59.2,37.9,29.65,SSE,158,3.8,4.9,45,0.00,,---,0.00,VWS V14.00,2015-03-01 01:44:00,
2015-02-28 17:49:00,58.6,37.9,29.65,South,180,4.0,4.0,46,0.00,,---,0.00,VWS V14.00,2015-03-01 01:49:00,
2015-02-28 17:55:00,58.1,37.5,29.65,SSE,158,3.1,4.3,46,0.00,,---,0.00,VWS V14.00,2015-03-01 01:55:00,
2015-02-28 18:00:00,57.7,37.7,29.65,South,180,3.6,5.6,47,0.00,,---,0.00,VWS V14.00,2015-03-01 02:00:00,
2015-02-28 18:05:00,57.2,37.2,29.65,SE,135,4.0,4.0,47,0.00,,---,0.00,VWS V14.00,2015-03-01 02:05:00,
2015-02-28 18:10:00,57.2,37.7,29.65,SE,135,2.9,2.9,48,0.00,,---,0.00,VWS V14.00,2015-03-01 02:10:00,
2015-02-28 18:15:00,56.8,37.9,29.65,SSE,158,3.4,3.4,49,0.00,,---,0.00,VWS V14.00,2015-03-01 02:15:00,
2015-02-28 18:20:00,56.7,37.7,29.65,SE,135,2.9,2.9,49,0.00,,---,0.00,VWS V14.00,2015-03-01 02:20:00,
2015-02-28 18:26:00,56.3,37.9,29.68,SE,135,2.5,3.4,50,0.00,,---,0.00,VWS V14.00,2015-03-01 02:26:00,
2015-02-28 18:31:00,56.1,38.3,29.68,SSE,158,1.3,2.5,51,0.00,,---,0.00,VWS V14.00,2015-03-01 02:31:00,
2015-02-28 18:36:00,55.0,37.8,29.68,SSE,158,1.1,1.6,52,0.00,,---,0.00,VWS V14.00,2015-03-01 02:36:00,
2015-02-28 18:41:00,54.3,37.6,29.68,SE,135,1.6,2.9,53,0.00,,---,0.00,VWS V14.00,2015-03-01 02:41:00,
2015-02-28 18:47:00,54.0,37.7,29.68,SSE,158,1.3,2.0,54,0.00,,---,0.00,VWS V14.00,2015-03-01 02:47:00,
2015-02-28 18:52:00,53.4,38.1,29.68,SSE,158,0.0,0.0,56,0.00,,---,0.00,VWS V14.00,2015-03-01 02:52:00,
2015-02-28 18:57:00,53.1,37.8,29.71,SE,135,3.4,3.4,56,0.00,,---,0.00,VWS V14.00,2015-03-01 02:57:00,
2015-02-28 19:03:00,53.4,39.0,29.71,SE,135,3.4,3.8,58,0.00,,---,0.00,VWS V14.00,2015-03-01 03:03:00,
2015-02-28 19:08:00,53.4,39.0,29.71,SE,135,3.6,4.0,58,0.00,,---,0.00,VWS V14.00,2015-03-01 03:08:00,
2015-02-28 19:13:00,53.2,39.3,29.71,SE,135,3.4,3.4,59,0.00,,---,0.00,VWS V14.00,2015-03-01 03:13:00,
2015-02-28 19:19:00,53.1,39.6,29.71,SE,135,3.1,3.6,60,0.00,,---,0.00,VWS V14.00,2015-03-01 03:19:00,
2015-02-28 19:24:00,53.1,40.0,29.71,SE,135,3.4,3.4,61,0.00,,---,0.00,VWS V14.00,2015-03-01 03:24:00,
2015-02-28 19:30:00,52.9,40.2,29.71,SE,135,2.0,3.1,62,0.00,,---,0.00,VWS V14.00,2015-03-01 03:30:00,
2015-02-28 19:36:00,52.5,40.3,29.71,SE,135,1.3,2.0,63,0.00,,---,0.00,VWS V14.00,2015-03-01 03:36:00,
2015-02-28 19:42:00,51.8,39.6,29.71,NE,45,1.1,2.0,63,0.00,,---,0.00,VWS V14.00,2015-03-01 03:42:00,
2015-02-28 19:47:00,51.6,40.2,29.71,NE,45,0.0,0.0,65,0.00,,---,0.00,VWS V14.00,2015-03-01 03:47:00,
2015-02-28 19:52:00,51.1,39.3,29.71,NE,45,0.0,0.0,64,0.00,,---,0.00,VWS V14.00,2015-03-01 03:52:00,
2015-02-28 19:57:00,50.5,39.6,29.74,NE,45,1.6,1.6,66,0.00,,---,0.00,VWS V14.00,2015-03-01 03:57:00,
2015-02-28 20:02:00,50.0,39.1,29.74,NE,45,1.6,1.6,66,0.00,,---,0.00,VWS V14.00,2015-03-01 04:02:00,
2015-02-28 20:08:00,49.6,39.2,29.74,NNW,338,2.0,2.0,67,0.00,,---,0.00,VWS V14.00,2015-03-01 04:08:00,